Huntsville Madison, AL

9:22 AM CDT on May 29, 2017 (GMT -0500)
Huntsville Madison

Weather History for KMDQ - February, 2012

Change the Weather History Date:

Thursday, February 23, 2012

  Actual Average (KHSV) Record (KHSV)
Temperature  
Mean Temperature 65 °F -  
Max Temperature 77 °F 57 °F 83 °F (1996)
Min Temperature 53 °F 37 °F 15 °F (1939)
Growing Degree Days 15 (Base 50)    
Moisture  
Dew Point 56 °F    
Average Humidity 75    
Maximum Humidity 100    
Minimum Humidity 41    
Precipitation  
Precipitation 0.00 in - - ()
Sea Level Pressure  
Sea Level Pressure 29.56 in    
Wind  
Wind Speed 12 mph (SSW)    
Max Wind Speed 28 mph    
Max Gust Speed 34 mph    
Visibility 9 miles    
Events      
Averages and records for this station are not official NWS values.
T = Trace of Precipitation, MM = Missing Value Source: NWS Daily Summary

Daily Weather History Graph

Daily Weather History Graph

Search for Another Location

Airport or City:

Trip Planner

Search our weather history database for the weather conditions in past years. The results will help you decide how hot, cold, wet, or windy it might be!

Date:

Astronomy

Feb. 23, 2012 Rise Set
Actual Time 6:23 AM CST 5:36 PM CST
Civil Twilight 5:57 AM CST 6:01 PM CST
Nautical Twilight 5:28 AM CST 6:31 PM CST
Astronomical Twilight 4:59 AM CST 7:00 PM CST
Moon 6:56 AM CST (2/23) 7:33 PM CST (2/23)
Length of Visible Light 12h 03m
Length of Day
11h 12m
Waxing Crescent, 3% of the Moon is Illuminated
Feb 23
Waxing Crescent
Feb 29
First Quarter
Mar 8
Full
Mar 14
Last Quarter
Mar 22
New

Hourly Weather History & Observations

Time (CST) Temp. Dew Point Humidity Pressure Visibility Wind Dir Wind Speed Gust Speed Precip Events Conditions
12:15 AM 55.4 °F 55.4 °F 100% 29.60 in 10.0 mi SSW 12.7 mph 18.4 mph N/A   Clear
12:35 AM 55.4 °F 55.4 °F 100% 29.60 in 10.0 mi SSW 12.7 mph - N/A   Clear
12:55 AM 57.2 °F 55.4 °F 94% 29.60 in 10.0 mi SSW 10.4 mph - N/A   Clear
1:15 AM 57.2 °F 55.4 °F 94% 29.61 in 10.0 mi SSW 9.2 mph - N/A   Clear
1:35 AM 57.2 °F 55.4 °F 94% 29.62 in 10.0 mi SSW 6.9 mph - N/A   Clear
1:55 AM 57.2 °F 55.4 °F 94% 29.62 in 10.0 mi SW 8.1 mph - N/A   Clear
2:15 AM 57.2 °F 55.4 °F 94% 29.61 in 10.0 mi SSW 6.9 mph - N/A   Clear
2:35 AM 55.4 °F 55.4 °F 100% 29.62 in 10.0 mi South 5.8 mph - N/A   Clear
2:55 AM 55.4 °F 53.6 °F 94% 29.62 in 10.0 mi SSW 9.2 mph - N/A   Clear
3:15 AM 55.4 °F 55.4 °F 100% 29.62 in 10.0 mi SSW 9.2 mph - N/A   Clear
3:35 AM 55.4 °F 55.4 °F 100% 29.61 in 7.0 mi SSW 6.9 mph - N/A   Clear
3:55 AM 55.4 °F 55.4 °F 100% 29.62 in 7.0 mi SSW 8.1 mph - N/A   Clear
4:15 AM 55.4 °F 55.4 °F 100% 29.62 in 7.0 mi SSW 8.1 mph - N/A   Clear
4:35 AM 55.4 °F 53.6 °F 94% 29.61 in 7.0 mi South 5.8 mph - N/A   Clear
4:55 AM 55.4 °F 55.4 °F 100% 29.61 in 7.0 mi SSW 6.9 mph - N/A   Clear
5:15 AM 53.6 °F 53.6 °F 100% 29.62 in 7.0 mi South 6.9 mph - N/A   Clear
5:35 AM 55.4 °F 55.4 °F 100% 29.63 in 7.0 mi SSW 8.1 mph - N/A   Scattered Clouds
5:55 AM 55.4 °F 55.4 °F 100% 29.63 in 7.0 mi SSW 11.5 mph - N/A   Mostly Cloudy
6:35 AM 55.4 °F 55.4 °F 100% 29.61 in 4.0 mi SSW 6.9 mph - N/A   Scattered Clouds
6:55 AM 55.4 °F 55.4 °F 100% 29.62 in 4.0 mi South 5.8 mph - N/A   Clear
7:35 AM 59.0 °F 57.2 °F 94% 29.64 in 5.0 mi South 8.1 mph - N/A   Overcast
7:55 AM 59.0 °F 59.0 °F 100% 29.64 in 7.0 mi South 8.1 mph - N/A   Overcast
8:15 AM 59.0 °F 57.2 °F 94% 29.64 in 7.0 mi South 10.4 mph - N/A   Mostly Cloudy
8:35 AM 59.0 °F 57.2 °F 94% 29.64 in 10.0 mi South 11.5 mph - N/A   Mostly Cloudy
8:55 AM 60.8 °F 57.2 °F 88% 29.63 in 10.0 mi South 9.2 mph - N/A   Scattered Clouds
9:15 AM 62.6 °F 59.0 °F 88% 29.64 in 10.0 mi South 13.8 mph 17.3 mph N/A   Mostly Cloudy
9:35 AM 62.6 °F 59.0 °F 88% 29.64 in 10.0 mi South 15.0 mph 23.0 mph N/A   Mostly Cloudy
9:55 AM 64.4 °F 57.2 °F 77% 29.61 in 10.0 mi South 12.7 mph 19.6 mph N/A   Scattered Clouds
10:15 AM 64.4 °F 57.2 °F 77% 29.60 in 10.0 mi South 15.0 mph 18.4 mph N/A   Clear
10:35 AM 66.2 °F 57.2 °F 73% 29.61 in 10.0 mi SSW 18.4 mph 21.9 mph N/A   Scattered Clouds
10:55 AM 68.0 °F 59.0 °F 73% 29.60 in 10.0 mi South 16.1 mph - N/A   Scattered Clouds
11:15 AM 68.0 °F 59.0 °F 73% 29.59 in 10.0 mi SSW 16.1 mph 26.5 mph N/A   Scattered Clouds
11:35 AM 69.8 °F 59.0 °F 68% 29.57 in 10.0 mi SSW 17.3 mph - N/A   Scattered Clouds
11:55 AM 69.8 °F 57.2 °F 64% 29.56 in 10.0 mi South 20.7 mph 26.5 mph N/A   Clear
12:15 PM 71.6 °F 55.4 °F 57% 29.54 in 10.0 mi South 17.3 mph 24.2 mph N/A   Clear
12:35 PM 71.6 °F 55.4 °F 57% 29.52 in 10.0 mi South 20.7 mph 29.9 mph N/A   Clear
12:55 PM 73.4 °F 55.4 °F 53% 29.51 in 10.0 mi South 21.9 mph 28.8 mph N/A   Clear
1:15 PM 73.4 °F 53.6 °F 50% 29.49 in 10.0 mi South 23.0 mph 33.4 mph N/A   Clear
1:35 PM 73.4 °F 53.6 °F 50% 29.49 in 10.0 mi SSW 25.3 mph 29.9 mph N/A   Clear
1:55 PM 75.2 °F 53.6 °F 47% 29.49 in 10.0 mi South 25.3 mph 34.5 mph N/A   Clear
2:15 PM 75.2 °F 51.8 °F 44% 29.48 in 10.0 mi South 19.6 mph 28.8 mph N/A   Clear
2:35 PM 77.0 °F 51.8 °F 41% 29.47 in 10.0 mi South 25.3 mph 32.2 mph N/A   Clear
2:55 PM 77.0 °F 53.6 °F 44% 29.47 in 10.0 mi South 20.7 mph 31.1 mph N/A   Clear
3:15 PM 77.0 °F 53.6 °F 44% 29.46 in 10.0 mi South 24.2 mph 31.1 mph N/A   Clear
3:35 PM 77.0 °F 53.6 °F 44% 29.46 in 10.0 mi South 27.6 mph 33.4 mph N/A   Clear
3:55 PM 77.0 °F 53.6 °F 44% 29.45 in 10.0 mi South 19.6 mph 28.8 mph N/A   Clear
4:15 PM 75.2 °F 53.6 °F 47% 29.46 in 10.0 mi SSW 17.3 mph 33.4 mph N/A   Clear
4:35 PM 75.2 °F 53.6 °F 47% 29.46 in 10.0 mi SSW 17.3 mph 26.5 mph N/A   Clear
4:55 PM 75.2 °F 53.6 °F 47% 29.46 in 10.0 mi SSW 18.4 mph 28.8 mph N/A   Clear
5:15 PM 73.4 °F 53.6 °F 50% 29.46 in 10.0 mi South 20.7 mph 25.3 mph N/A   Clear
5:35 PM 73.4 °F 53.6 °F 50% 29.46 in 10.0 mi South 18.4 mph 25.3 mph N/A   Clear
5:55 PM 71.6 °F 55.4 °F 57% 29.47 in 10.0 mi South 13.8 mph - N/A   Clear
6:15 PM 71.6 °F 55.4 °F 57% 29.47 in 10.0 mi South 15.0 mph 19.6 mph N/A   Clear
6:35 PM 71.6 °F 57.2 °F 60% 29.48 in 10.0 mi South 12.7 mph 23.0 mph N/A   Clear
6:55 PM 71.6 °F 57.2 °F 60% 29.48 in 10.0 mi South 10.4 mph - N/A   Clear
7:15 PM 69.8 °F 57.2 °F 64% 29.49 in 10.0 mi South 9.2 mph 16.1 mph N/A   Clear
7:35 PM 69.8 °F 57.2 °F 64% 29.49 in 10.0 mi South 13.8 mph 17.3 mph N/A   Clear
7:55 PM 69.8 °F 57.2 °F 64% 29.49 in 10.0 mi South 12.7 mph 18.4 mph N/A   Clear
8:15 PM 69.8 °F 57.2 °F 64% 29.50 in 10.0 mi South 16.1 mph - N/A   Clear
8:35 PM 69.8 °F 57.2 °F 64% 29.50 in 10.0 mi South 18.4 mph 23.0 mph N/A   Clear
8:55 PM 69.8 °F 57.2 °F 64% 29.51 in 10.0 mi SSW 16.1 mph 25.3 mph N/A   Clear
9:15 PM 69.8 °F 57.2 °F 64% 29.52 in 10.0 mi SSW 15.0 mph 20.7 mph N/A   Clear
9:35 PM 69.8 °F 59.0 °F 68% 29.52 in 10.0 mi SSW 17.3 mph 25.3 mph N/A   Clear
9:55 PM 69.8 °F 59.0 °F 68% 29.53 in 10.0 mi SSW 17.3 mph 25.3 mph N/A   Clear
10:15 PM 69.8 °F 59.0 °F 68% 29.54 in 10.0 mi SSW 13.8 mph 26.5 mph N/A   Clear
10:35 PM 69.8 °F 59.0 °F 68% 29.55 in 10.0 mi SSW 12.7 mph 23.0 mph N/A   Scattered Clouds
10:55 PM 69.8 °F 60.8 °F 73% 29.55 in 10.0 mi SSW 18.4 mph 31.1 mph N/A   Mostly Cloudy
11:15 PM 69.8 °F 60.8 °F 73% 29.55 in 10.0 mi SSW 13.8 mph 23.0 mph N/A   Mostly Cloudy
11:35 PM 68.0 °F 60.8 °F 78% 29.55 in 10.0 mi SSW 17.3 mph 26.5 mph N/A   Scattered Clouds
11:55 PM 68.0 °F 60.8 °F 78% 29.56 in 10.0 mi SSW 18.4 mph 23.0 mph N/A   Scattered Clouds